sensor_id;sensor_type;location;lat;lon;timestamp;pressure;altitude;pressure_sealevel;temperature;humidity
77824;BME280;67015;46.242;6.028;2023-02-01T00:29:54;97752.0;;;-0.81;88.51
77824;BME280;67015;46.242;6.028;2023-02-01T00:59:54;97759.0;;;-1.15;88.73
77824;BME280;67015;46.242;6.028;2023-02-01T01:29:54;97770.0;;;-1.44;89.64
77824;BME280;67015;46.242;6.028;2023-02-01T01:59:54;97756.0;;;-1.79;89.66
77824;BME280;67015;46.242;6.028;2023-02-01T02:59:53;97740.0;;;-2.34;90.87
77824;BME280;67015;46.242;6.028;2023-02-01T03:29:55;97739.0;;;-2.71;90.59
77824;BME280;67015;46.242;6.028;2023-02-01T03:59:53;97738.0;;;-2.8;91.21
77824;BME280;67015;46.242;6.028;2023-02-01T04:59:53;97737.0;;;-3.03;90.97
77824;BME280;67015;46.242;6.028;2023-02-01T05:29:53;97774.0;;;-3.27;91.25
77824;BME280;67015;46.242;6.028;2023-02-01T05:59:54;97798.0;;;-3.39;92.02
77824;BME280;67015;46.242;6.028;2023-02-01T06:29:53;97824.0;;;-3.53;92.12
77824;BME280;67015;46.242;6.028;2023-02-01T07:00:00;97871.0;;;-3.56;92.18
77824;BME280;67015;46.242;6.028;2023-02-01T07:29:54;97900.0;;;-3.57;92.14
77824;BME280;67015;46.242;6.028;2023-02-01T07:59:53;97909.0;;;-3.02;92.87
77824;BME280;67015;46.242;6.028;2023-02-01T08:29:54;97891.0;;;-2.07;91.06
77824;BME280;67015;46.242;6.028;2023-02-01T08:59:53;97938.0;;;-0.94;89.95
77824;BME280;67015;46.242;6.028;2023-02-01T09:29:53;97963.0;;;0.76;86.14
77824;BME280;67015;46.242;6.028;2023-02-01T09:59:54;97974.0;;;3.87;73.06
77824;BME280;67015;46.242;6.028;2023-02-01T10:29:54;97979.0;;;5.49;64.65
77824;BME280;67015;46.242;6.028;2023-02-01T10:59:53;97943.0;;;5.12;68.89
77824;BME280;67015;46.242;6.028;2023-02-01T11:29:55;97891.0;;;6.05;65.51
77824;BME280;67015;46.242;6.028;2023-02-01T12:00:00;97833.0;;;9.0;56.74
77824;BME280;67015;46.242;6.028;2023-02-01T12:29:58;97814.0;;;12.39;45.98
77824;BME280;67015;46.242;6.028;2023-02-01T12:59:54;97782.0;;;9.94;53.68
77824;BME280;67015;46.242;6.028;2023-02-01T13:29:56;97751.0;;;8.52;57.43
77824;BME280;67015;46.242;6.028;2023-02-01T13:59:53;97722.0;;;11.42;51.4
77824;BME280;67015;46.242;6.028;2023-02-01T14:29:54;97706.0;;;11.86;47.66
77824;BME280;67015;46.242;6.028;2023-02-01T14:59:53;97703.0;;;11.21;46.68
77824;BME280;67015;46.242;6.028;2023-02-01T15:29:53;97722.0;;;9.05;50.96
77824;BME280;67015;46.242;6.028;2023-02-01T15:59:53;97764.0;;;7.84;52.44
77824;BME280;67015;46.242;6.028;2023-02-01T16:29:53;97809.0;;;6.76;53.84
77824;BME280;67015;46.242;6.028;2023-02-01T16:59:54;97847.0;;;6.01;57.37
77824;BME280;67015;46.242;6.028;2023-02-01T17:29:53;97842.0;;;5.89;55.28
77824;BME280;67015;46.242;6.028;2023-02-01T17:59:52;97846.0;;;5.66;59.6
77824;BME280;67015;46.242;6.028;2023-02-01T18:29:52;97870.0;;;5.29;61.26
77824;BME280;67015;46.242;6.028;2023-02-01T18:59:53;97878.0;;;5.12;61.67
77824;BME280;67015;46.242;6.028;2023-02-01T19:29:53;97868.0;;;4.84;63.67
77824;BME280;67015;46.242;6.028;2023-02-01T19:59:52;97909.0;;;4.58;69.33
77824;BME280;67015;46.242;6.028;2023-02-01T20:29:53;97916.0;;;4.55;67.1
77824;BME280;67015;46.242;6.028;2023-02-01T20:59:52;97913.0;;;4.34;66.38
77824;BME280;67015;46.242;6.028;2023-02-01T21:29:52;97932.0;;;4.38;65.9
77824;BME280;67015;46.242;6.028;2023-02-01T21:59:53;97934.0;;;4.19;69.75
77824;BME280;67015;46.242;6.028;2023-02-01T22:29:52;97956.0;;;3.99;70.29
77824;BME280;67015;46.242;6.028;2023-02-01T22:59:52;97986.0;;;3.61;71.7
77824;BME280;67015;46.242;6.028;2023-02-01T23:29:53;97992.0;;;3.57;72.42
77824;BME280;67015;46.242;6.028;2023-02-01T23:59:52;97979.0;;;3.24;74.14
